createdAt,value
2022-09-23T00:02:24.878Z,8.99
2022-09-23T00:07:26.112Z,8.84
2022-09-23T00:12:27.326Z,8.73
2022-09-23T00:17:28.526Z,8.57
2022-09-23T00:22:29.721Z,8.77
2022-09-23T00:27:30.988Z,8.64
2022-09-23T00:32:32.209Z,8.74
2022-09-23T00:37:33.713Z,8.61
2022-09-23T00:42:34.990Z,8.66
2022-09-23T00:47:36.228Z,8.80
2022-09-23T00:52:37.479Z,8.73
2022-09-23T00:57:38.899Z,8.43
2022-09-23T01:02:40.164Z,8.51
2022-09-23T01:07:41.468Z,8.22
2022-09-23T01:12:42.712Z,8.39
2022-09-23T01:17:44.067Z,8.26
2022-09-23T01:22:46.662Z,8.27
2022-09-23T01:27:47.907Z,8.29
2022-09-23T01:32:49.146Z,8.17
2022-09-23T01:37:50.398Z,8.16
2022-09-23T01:42:52.125Z,8.10
2022-09-23T01:47:53.485Z,7.75
2022-09-23T01:52:54.785Z,8.03
2022-09-23T01:57:56.095Z,7.98
2022-09-23T02:02:58.874Z,7.89
2022-09-23T02:08:00.098Z,8.06
2022-09-23T02:13:01.326Z,7.73
2022-09-23T02:18:02.573Z,7.79
2022-09-23T02:23:03.845Z,7.74
2022-09-23T02:28:05.089Z,7.92
2022-09-23T02:33:07.082Z,7.87
2022-09-23T02:38:08.326Z,7.83
2022-09-23T02:43:09.585Z,7.60
2022-09-23T02:48:10.808Z,7.14
2022-09-23T02:53:12.010Z,7.31
2022-09-23T02:58:13.987Z,7.29
2022-09-23T03:03:15.662Z,7.40
2022-09-23T03:08:19.217Z,7.04
2022-09-23T03:13:26.130Z,6.97
2022-09-23T03:18:31.625Z,7.03
2022-09-23T03:23:33.850Z,6.98
2022-09-23T03:28:35.035Z,6.98
2022-09-23T03:33:36.275Z,7.04
2022-09-23T03:38:37.916Z,7.09
2022-09-23T03:43:39.192Z,7.11
2022-09-23T03:48:40.707Z,6.91
2022-09-23T03:53:42.355Z,6.72
2022-09-23T03:58:45.443Z,6.57
2022-09-23T04:03:46.650Z,6.65
2022-09-23T04:08:47.853Z,6.45
2022-09-23T04:13:49.066Z,6.59
2022-09-23T04:18:50.282Z,6.63
2022-09-23T04:23:51.991Z,6.70
2022-09-23T04:28:53.219Z,6.56
2022-09-23T04:33:54.422Z,6.29
2022-09-23T04:38:56.295Z,6.35
2022-09-23T04:43:57.644Z,6.55
2022-09-23T04:48:59.000Z,6.21
2022-09-23T04:54:00.241Z,6.33
2022-09-23T04:59:04.531Z,6.29
2022-09-23T05:04:05.847Z,6.30
2022-09-23T05:09:07.214Z,6.29
2022-09-23T05:14:08.615Z,6.54
2022-09-23T05:19:09.949Z,6.36
2022-09-23T05:24:11.194Z,6.35
2022-09-23T05:29:12.429Z,6.26
2022-09-23T05:34:13.649Z,6.12
2022-09-23T05:39:14.922Z,6.19
2022-09-23T05:44:16.183Z,6.21
2022-09-23T05:49:17.428Z,6.22
2022-09-23T05:54:19.142Z,6.33
2022-09-23T05:59:20.408Z,6.29
2022-09-23T06:04:21.833Z,6.38
2022-09-23T06:09:23.065Z,6.40
2022-09-23T06:14:24.483Z,6.63
2022-09-23T06:19:25.683Z,6.81
2022-09-23T06:24:31.026Z,6.37
2022-09-23T06:29:33.172Z,6.66
2022-09-23T06:34:45.322Z,6.63
2022-09-23T06:39:52.619Z,6.50
2022-09-23T06:44:53.955Z,6.43
2022-09-23T06:49:55.157Z,6.76
2022-09-23T06:54:56.815Z,6.99
2022-09-23T06:59:59.091Z,7.34
2022-09-23T07:05:00.447Z,7.37
2022-09-23T07:10:01.752Z,7.86
2022-09-23T07:15:02.965Z,7.95
2022-09-23T07:20:04.447Z,8.19
2022-09-23T07:25:06.211Z,10.17
2022-09-23T07:30:11.450Z,9.38
2022-09-23T07:35:17.762Z,9.49
2022-09-23T07:40:19.055Z,9.66
2022-09-23T07:45:21.786Z,9.81
2022-09-23T07:50:23.080Z,10.04
2022-09-23T07:55:24.304Z,10.05
2022-09-23T08:00:25.498Z,10.42
2022-09-23T08:05:26.730Z,10.20
2022-09-23T08:10:28.149Z,9.95
2022-09-23T08:15:29.934Z,10.81
2022-09-23T08:20:47.740Z,11.30
2022-09-23T08:25:49.407Z,11.64
2022-09-23T08:30:50.649Z,11.92
2022-09-23T08:35:52.047Z,13.03
2022-09-23T08:40:53.333Z,13.93
2022-09-23T08:45:54.610Z,14.30
2022-09-23T08:50:58.442Z,15.01
2022-09-23T08:55:59.708Z,14.58
2022-09-23T09:01:01.005Z,15.08
2022-09-23T09:06:02.265Z,14.89
2022-09-23T09:11:03.466Z,15.03
2022-09-23T09:16:06.124Z,15.34
2022-09-23T09:21:09.941Z,15.03
2022-09-23T09:26:11.155Z,14.70
2022-09-23T09:31:12.400Z,14.79
2022-09-23T09:36:13.635Z,15.22
2022-09-23T09:41:15.113Z,15.55
2022-09-23T09:46:16.357Z,15.78
2022-09-23T09:51:18.763Z,15.75
2022-09-23T09:56:20.622Z,16.10
2022-09-23T10:01:21.852Z,16.34
2022-09-23T10:06:24.325Z,16.19
2022-09-23T10:11:25.550Z,16.15
2022-09-23T10:16:26.784Z,16.69
2022-09-23T10:21:33.171Z,16.80
2022-09-23T10:26:34.441Z,17.02
2022-09-23T10:31:35.693Z,17.29
2022-09-23T10:36:40.086Z,17.23
2022-09-23T10:42:02.643Z,16.94
2022-09-23T10:47:03.907Z,17.43
2022-09-23T10:52:05.273Z,17.63
2022-09-23T10:57:26.482Z,18.07
2022-09-23T11:02:28.359Z,17.95
2022-09-23T11:07:32.751Z,18.18
2022-09-23T11:12:37.043Z,18.33
2022-09-23T11:17:38.264Z,18.32
2022-09-23T11:22:39.483Z,18.36
2022-09-23T11:27:40.705Z,18.44
2022-09-23T11:32:41.926Z,18.39
2022-09-23T11:37:43.122Z,18.02
2022-09-23T11:42:44.402Z,18.40
2022-09-23T11:47:45.623Z,18.96
2022-09-23T11:52:46.830Z,19.15
2022-09-23T11:57:49.490Z,18.92
2022-09-23T12:03:01.961Z,19.04
2022-09-23T12:08:05.693Z,19.23
2022-09-23T12:13:07.327Z,18.98
2022-09-23T12:18:10.562Z,18.73
2022-09-23T12:23:13.254Z,18.85
2022-09-23T12:28:14.462Z,19.11
2022-09-23T12:33:15.791Z,19.49
2022-09-23T12:38:17.026Z,19.33
2022-09-23T12:43:18.266Z,19.51
2022-09-23T12:48:19.467Z,20.19
2022-09-23T12:53:20.923Z,20.60
2022-09-23T12:58:22.152Z,20.50
2022-09-23T13:03:42.325Z,20.61
2022-09-23T13:08:43.551Z,21.08
2022-09-23T13:13:44.770Z,21.20
2022-09-23T13:18:46.080Z,21.90
2022-09-23T13:23:47.283Z,21.65
2022-09-23T13:28:48.532Z,21.65
2022-09-23T13:33:49.733Z,21.45
2022-09-23T13:38:50.934Z,22.05
2022-09-23T13:43:52.149Z,22.12
2022-09-23T13:48:56.543Z,21.93
2022-09-23T13:53:57.775Z,21.84
2022-09-23T13:58:58.992Z,22.29
2022-09-23T14:04:00.241Z,22.24
2022-09-23T14:09:01.561Z,22.32
2022-09-23T14:14:06.987Z,22.38
2022-09-23T14:19:08.354Z,22.27
2022-09-23T14:24:09.590Z,21.94
2022-09-23T14:29:10.840Z,22.01
2022-09-23T14:34:12.053Z,21.97
2022-09-23T14:39:13.366Z,21.92
2022-09-23T14:44:14.566Z,21.60
2022-09-23T14:49:15.811Z,21.66
2022-09-23T14:54:17.028Z,21.77
2022-09-23T14:59:18.228Z,21.81
2022-09-23T15:04:19.755Z,21.80
2022-09-23T15:09:21.071Z,22.15
2022-09-23T15:14:37.301Z,22.01
2022-09-23T15:19:39.286Z,21.93
2022-09-23T15:24:40.565Z,21.95
2022-09-23T15:29:41.808Z,22.07
2022-09-23T15:34:43.095Z,21.84
2022-09-23T15:39:44.352Z,21.38
2022-09-23T15:44:45.709Z,21.14
2022-09-23T15:49:47.245Z,21.07
2022-09-23T15:54:48.488Z,20.67
2022-09-23T15:59:49.719Z,20.40
2022-09-23T16:04:52.345Z,19.70
2022-09-23T16:09:54.773Z,19.14
2022-09-23T16:14:56.025Z,18.84
2022-09-23T16:19:57.296Z,19.28
2022-09-23T16:24:58.585Z,19.93
2022-09-23T16:29:59.820Z,19.92
2022-09-23T16:35:01.039Z,19.63
2022-09-23T16:40:03.675Z,19.40
2022-09-23T16:45:06.053Z,19.16
2022-09-23T16:50:09.214Z,19.01
2022-09-23T16:55:10.613Z,18.95
2022-09-23T17:00:30.730Z,18.19
2022-09-23T17:05:31.991Z,17.54
2022-09-23T17:10:33.208Z,16.64
2022-09-23T17:15:34.415Z,16.74
2022-09-23T17:20:35.624Z,16.14
2022-09-23T17:25:36.839Z,15.65
2022-09-23T17:30:39.287Z,15.35
2022-09-23T17:35:40.483Z,15.50
2022-09-23T17:40:42.015Z,15.48
2022-09-23T17:45:43.373Z,15.34
2022-09-23T17:50:44.586Z,14.58
2022-09-23T17:55:45.794Z,14.95
2022-09-23T18:00:47.107Z,14.32
2022-09-23T18:05:48.375Z,14.23
2022-09-23T18:10:49.583Z,14.04
2022-09-23T18:15:50.819Z,14.01
2022-09-23T18:20:52.019Z,13.93
2022-09-23T18:25:53.219Z,13.64
2022-09-23T18:30:54.442Z,13.96
2022-09-23T18:35:55.677Z,14.09
2022-09-23T18:40:57.519Z,13.60
2022-09-23T18:45:58.921Z,13.45
2022-09-23T18:51:00.153Z,13.37
2022-09-23T18:56:02.345Z,13.13
2022-09-23T19:01:03.632Z,13.07
2022-09-23T19:06:04.918Z,13.35
2022-09-23T19:11:06.154Z,13.06
2022-09-23T19:16:07.695Z,13.16
2022-09-23T19:21:09.017Z,13.06
2022-09-23T19:26:10.334Z,12.61
2022-09-23T19:31:11.839Z,12.64
2022-09-23T19:36:13.236Z,12.92
2022-09-23T19:41:14.442Z,12.42
2022-09-23T19:46:16.093Z,12.24
2022-09-23T19:51:19.384Z,12.63
2022-09-23T19:56:20.632Z,12.76
2022-09-23T20:01:21.904Z,12.79
2022-09-23T20:06:23.179Z,12.64
2022-09-23T20:11:28.435Z,12.54
2022-09-23T20:16:31.859Z,12.31
2022-09-23T20:21:33.740Z,12.01
2022-09-23T20:26:53.798Z,12.27
2022-09-23T20:31:56.938Z,11.69
2022-09-23T20:36:59.176Z,11.53
2022-09-23T20:42:02.611Z,11.64
2022-09-23T20:47:03.905Z,11.86
2022-09-23T20:52:06.334Z,11.40
2022-09-23T20:57:07.534Z,11.43
2022-09-23T21:02:08.834Z,11.50
2022-09-23T21:07:10.228Z,11.60
2022-09-23T21:12:11.636Z,11.73
2022-09-23T21:17:12.864Z,11.46
2022-09-23T21:22:14.166Z,11.39
2022-09-23T21:27:15.405Z,11.33
2022-09-23T21:32:16.623Z,11.31
2022-09-23T21:37:17.860Z,11.55
2022-09-23T21:42:19.116Z,11.70
2022-09-23T21:47:20.330Z,11.67
2022-09-23T21:52:21.569Z,11.00
2022-09-23T21:57:25.880Z,11.30
2022-09-23T22:02:27.501Z,11.56
2022-09-23T22:07:28.709Z,11.65
2022-09-23T22:12:29.914Z,11.65
2022-09-23T22:17:32.385Z,11.58
2022-09-23T22:22:33.599Z,11.48
2022-09-23T22:27:54.800Z,11.29
2022-09-23T22:32:56.029Z,11.28
2022-09-23T22:37:57.259Z,11.21
2022-09-23T22:42:58.482Z,11.08
2022-09-23T22:47:59.691Z,11.01
2022-09-23T22:53:01.808Z,11.35
2022-09-23T22:58:21.298Z,11.29
2022-09-23T23:03:24.292Z,11.15
2022-09-23T23:08:27.074Z,11.38
2022-09-23T23:13:28.321Z,11.44
2022-09-23T23:18:31.483Z,11.42
2022-09-23T23:23:32.718Z,11.45
2022-09-23T23:28:33.916Z,11.51
2022-09-23T23:33:35.126Z,11.32
2022-09-23T23:38:36.858Z,11.27
2022-09-23T23:43:38.588Z,10.89
2022-09-23T23:48:39.895Z,11.16
2022-09-23T23:53:41.166Z,11.23
2022-09-23T23:58:42.398Z,10.93
